sensor_id;sensor_type;location;lat;lon;timestamp;pressure;altitude;pressure_sealevel;temperature;humidity
15884;BME280;8040;50.254;10.960;2023-03-15T00:01:27;97568.63;;;6.51;74.69
15884;BME280;8040;50.254;10.960;2023-03-15T00:03:52;97577.81;;;6.50;74.57
15884;BME280;8040;50.254;10.960;2023-03-15T00:06:20;97585.69;;;6.46;74.57
15884;BME280;8040;50.254;10.960;2023-03-15T00:08:46;97589.47;;;6.45;74.30
15884;BME280;8040;50.254;10.960;2023-03-15T00:11:11;97592.16;;;6.45;74.52
15884;BME280;8040;50.254;10.960;2023-03-15T00:13:36;97596.22;;;6.43;74.28
15884;BME280;8040;50.254;10.960;2023-03-15T00:16:02;97596.44;;;6.46;74.53
15884;BME280;8040;50.254;10.960;2023-03-15T00:18:27;97593.25;;;6.44;74.58
15884;BME280;8040;50.254;10.960;2023-03-15T00:20:52;97598.03;;;6.47;74.74
15884;BME280;8040;50.254;10.960;2023-03-15T00:23:18;97596.94;;;6.48;74.34
15884;BME280;8040;50.254;10.960;2023-03-15T00:25:43;97613.72;;;6.45;74.36
15884;BME280;8040;50.254;10.960;2023-03-15T00:28:09;97612.88;;;6.45;74.34
15884;BME280;8040;50.254;10.960;2023-03-15T00:30:34;97617.72;;;6.48;74.11
15884;BME280;8040;50.254;10.960;2023-03-15T00:33:00;97615.59;;;6.45;74.31
15884;BME280;8040;50.254;10.960;2023-03-15T00:35:25;97611.00;;;6.45;74.36
15884;BME280;8040;50.254;10.960;2023-03-15T00:37:54;97611.06;;;6.40;74.05
15884;BME280;8040;50.254;10.960;2023-03-15T00:40:20;97619.97;;;6.41;73.72
15884;BME280;8040;50.254;10.960;2023-03-15T00:42:45;97628.81;;;6.41;74.06
15884;BME280;8040;50.254;10.960;2023-03-15T00:45:14;97633.44;;;6.41;74.52
15884;BME280;8040;50.254;10.960;2023-03-15T00:47:40;97637.22;;;6.40;74.02
15884;BME280;8040;50.254;10.960;2023-03-15T00:50:05;97648.31;;;6.33;73.70
15884;BME280;8040;50.254;10.960;2023-03-15T00:52:34;97642.94;;;6.33;73.57
15884;BME280;8040;50.254;10.960;2023-03-15T00:55:00;97656.56;;;6.18;69.42
15884;BME280;8040;50.254;10.960;2023-03-15T00:57:25;97656.63;;;6.13;70.13
15884;BME280;8040;50.254;10.960;2023-03-15T00:59:50;97664.72;;;6.13;69.88
15884;BME280;8040;50.254;10.960;2023-03-15T01:02:17;97669.00;;;6.14;69.98
15884;BME280;8040;50.254;10.960;2023-03-15T01:04:46;97667.91;;;6.15;70.13
15884;BME280;8040;50.254;10.960;2023-03-15T01:14:56;97680.84;;;6.13;66.71
15884;BME280;8040;50.254;10.960;2023-03-15T01:17:21;97684.69;;;6.07;65.73
15884;BME280;8040;50.254;10.960;2023-03-15T01:19:47;97688.97;;;6.08;66.00
15884;BME280;8040;50.254;10.960;2023-03-15T01:22:12;97688.75;;;6.05;65.51
15884;BME280;8040;50.254;10.960;2023-03-15T01:24:37;97693.66;;;5.98;62.66
15884;BME280;8040;50.254;10.960;2023-03-15T01:27:02;97705.03;;;5.90;62.25
15884;BME280;8040;50.254;10.960;2023-03-15T01:29:28;97697.81;;;5.85;62.68
15884;BME280;8040;50.254;10.960;2023-03-15T01:31:53;97701.59;;;5.84;64.11
15884;BME280;8040;50.254;10.960;2023-03-15T01:34:18;97703.19;;;5.85;63.63
15884;BME280;8040;50.254;10.960;2023-03-15T01:39:19;97707.19;;;5.88;64.71
15884;BME280;8040;50.254;10.960;2023-03-15T01:41:44;97704.50;;;5.88;64.49
15884;BME280;8040;50.254;10.960;2023-03-15T01:44:11;97715.28;;;5.88;65.05
15884;BME280;8040;50.254;10.960;2023-03-15T01:46:39;97718.50;;;5.85;64.97
15884;BME280;8040;50.254;10.960;2023-03-15T01:54:33;97715.06;;;5.74;66.73
15884;BME280;8040;50.254;10.960;2023-03-15T01:59:30;97719.19;;;5.67;67.47
15884;BME280;8040;50.254;10.960;2023-03-15T02:01:57;97723.81;;;5.56;67.85
15884;BME280;8040;50.254;10.960;2023-03-15T02:04:32;97721.44;;;5.55;68.35
15884;BME280;8040;50.254;10.960;2023-03-15T02:06:59;97721.47;;;5.50;68.38
15884;BME280;8040;50.254;10.960;2023-03-15T02:09:44;97730.88;;;5.47;69.24
15884;BME280;8040;50.254;10.960;2023-03-15T02:12:10;97733.03;;;5.45;69.50
15884;BME280;8040;50.254;10.960;2023-03-15T02:14:36;97736.31;;;5.37;69.54
15884;BME280;8040;50.254;10.960;2023-03-15T02:17:02;97741.22;;;5.30;69.21
15884;BME280;8040;50.254;10.960;2023-03-15T02:20:10;97750.91;;;5.26;69.66
15884;BME280;8040;50.254;10.960;2023-03-15T02:27:24;97758.25;;;5.11;68.83
15884;BME280;8040;50.254;10.960;2023-03-15T02:29:51;97760.41;;;5.09;68.61
15884;BME280;8040;50.254;10.960;2023-03-15T02:32:16;97765.53;;;5.05;68.37
15884;BME280;8040;50.254;10.960;2023-03-15T02:34:42;97762.84;;;5.05;68.94
15884;BME280;8040;50.254;10.960;2023-03-15T02:37:07;97762.63;;;4.97;68.53
15884;BME280;8040;50.254;10.960;2023-03-15T02:39:32;97769.09;;;4.91;67.70
15884;BME280;8040;50.254;10.960;2023-03-15T02:41:58;97765.34;;;4.87;67.81
15884;BME280;8040;50.254;10.960;2023-03-15T02:44:31;97767.25;;;4.76;67.65
15884;BME280;8040;50.254;10.960;2023-03-15T02:46:58;97783.38;;;4.76;67.79
15884;BME280;8040;50.254;10.960;2023-03-15T02:49:26;97780.19;;;4.69;67.65
15884;BME280;8040;50.254;10.960;2023-03-15T02:51:54;97785.56;;;4.64;67.98
15884;BME280;8040;50.254;10.960;2023-03-15T02:54:20;97786.91;;;4.67;68.12
15884;BME280;8040;50.254;10.960;2023-03-15T02:56:45;97793.09;;;4.62;68.24
15884;BME280;8040;50.254;10.960;2023-03-15T02:59:11;97785.31;;;4.61;68.24
15884;BME280;8040;50.254;10.960;2023-03-15T03:01:37;97795.25;;;4.55;67.73
15884;BME280;8040;50.254;10.960;2023-03-15T03:04:02;97797.94;;;4.50;68.19
15884;BME280;8040;50.254;10.960;2023-03-15T03:06:27;97803.31;;;4.45;68.68
15884;BME280;8040;50.254;10.960;2023-03-15T03:08:53;97810.84;;;4.43;68.93
15884;BME280;8040;50.254;10.960;2023-03-15T03:11:18;97809.25;;;4.37;69.61
15884;BME280;8040;50.254;10.960;2023-03-15T03:13:44;97811.13;;;4.37;69.78
15884;BME280;8040;50.254;10.960;2023-03-15T03:16:10;97811.94;;;4.32;70.29
15884;BME280;8040;50.254;10.960;2023-03-15T03:18:35;97828.03;;;4.27;70.13
15884;BME280;8040;50.254;10.960;2023-03-15T03:21:01;97822.16;;;4.20;70.35
15884;BME280;8040;50.254;10.960;2023-03-15T03:23:28;97830.72;;;4.17;70.40
15884;BME280;8040;50.254;10.960;2023-03-15T03:25:53;97831.28;;;4.14;71.04
15884;BME280;8040;50.254;10.960;2023-03-15T03:28:20;97826.44;;;4.16;71.01
15884;BME280;8040;50.254;10.960;2023-03-15T03:30:45;97827.50;;;4.20;70.62
15884;BME280;8040;50.254;10.960;2023-03-15T03:33:10;97829.66;;;4.13;70.80
15884;BME280;8040;50.254;10.960;2023-03-15T03:35:36;97836.09;;;4.02;71.10
15884;BME280;8040;50.254;10.960;2023-03-15T03:38:01;97836.63;;;3.99;70.68
15884;BME280;8040;50.254;10.960;2023-03-15T03:40:26;97842.00;;;3.99;71.00
15884;BME280;8040;50.254;10.960;2023-03-15T03:42:52;97844.94;;;3.93;71.63
15884;BME280;8040;50.254;10.960;2023-03-15T03:45:17;97845.75;;;3.88;71.56
15884;BME280;8040;50.254;10.960;2023-03-15T03:47:42;97857.00;;;3.85;72.17
15884;BME280;8040;50.254;10.960;2023-03-15T03:50:09;97859.66;;;3.80;72.44
15884;BME280;8040;50.254;10.960;2023-03-15T03:52:34;97860.75;;;3.84;72.33
15884;BME280;8040;50.254;10.960;2023-03-15T03:55:00;97861.00;;;3.83;72.11
15884;BME280;8040;50.254;10.960;2023-03-15T03:57:25;97868.00;;;3.84;71.99
15884;BME280;8040;50.254;10.960;2023-03-15T03:59:50;97865.56;;;3.77;72.09
15884;BME280;8040;50.254;10.960;2023-03-15T04:02:16;97873.59;;;3.72;72.15
15884;BME280;8040;50.254;10.960;2023-03-15T04:04:41;97877.88;;;3.68;72.31
15884;BME280;8040;50.254;10.960;2023-03-15T04:07:07;97887.81;;;3.68;72.64
15884;BME280;8040;50.254;10.960;2023-03-15T04:09:32;97892.91;;;3.64;71.96
15884;BME280;8040;50.254;10.960;2023-03-15T04:12:01;97902.56;;;3.65;72.61
15884;BME280;8040;50.254;10.960;2023-03-15T04:14:26;97913.81;;;3.67;71.70
15884;BME280;8040;50.254;10.960;2023-03-15T04:16:52;97909.25;;;3.68;72.06
15884;BME280;8040;50.254;10.960;2023-03-15T04:19:18;97911.69;;;3.69;72.54
15884;BME280;8040;50.254;10.960;2023-03-15T04:21:44;97913.03;;;3.67;72.07
15884;BME280;8040;50.254;10.960;2023-03-15T04:24:11;97922.94;;;3.66;72.17
15884;BME280;8040;50.254;10.960;2023-03-15T04:26:36;97932.31;;;3.64;72.30
15884;BME280;8040;50.254;10.960;2023-03-15T04:29:02;97925.34;;;3.63;72.82
15884;BME280;8040;50.254;10.960;2023-03-15T04:31:28;97919.47;;;3.66;72.57
15884;BME280;8040;50.254;10.960;2023-03-15T04:33:53;97921.03;;;3.62;72.49
15884;BME280;8040;50.254;10.960;2023-03-15T04:36:19;97920.50;;;3.60;71.85
15884;BME280;8040;50.254;10.960;2023-03-15T04:38:45;97922.88;;;3.56;71.76
15884;BME280;8040;50.254;10.960;2023-03-15T04:41:11;97923.44;;;3.58;71.82
15884;BME280;8040;50.254;10.960;2023-03-15T04:43:37;97928.25;;;3.61;72.30
15884;BME280;8040;50.254;10.960;2023-03-15T04:46:02;97931.25;;;3.60;71.86
15884;BME280;8040;50.254;10.960;2023-03-15T04:48:27;97934.19;;;3.63;71.60
15884;BME280;8040;50.254;10.960;2023-03-15T04:50:53;97935.25;;;3.67;71.77
15884;BME280;8040;50.254;10.960;2023-03-15T04:53:18;97938.22;;;3.66;71.61
15884;BME280;8040;50.254;10.960;2023-03-15T04:55:43;97939.56;;;3.63;71.68
15884;BME280;8040;50.254;10.960;2023-03-15T04:58:09;97944.94;;;3.63;71.16
15884;BME280;8040;50.254;10.960;2023-03-15T05:00:34;97947.03;;;3.61;71.34
15884;BME280;8040;50.254;10.960;2023-03-15T05:02:59;97954.28;;;3.61;71.48
15884;BME280;8040;50.254;10.960;2023-03-15T05:05:25;97958.84;;;3.60;71.63
15884;BME280;8040;50.254;10.960;2023-03-15T05:07:51;97954.53;;;3.59;71.96
15884;BME280;8040;50.254;10.960;2023-03-15T05:10:16;97957.75;;;3.61;71.94
15884;BME280;8040;50.254;10.960;2023-03-15T05:12:42;97952.94;;;3.58;71.89
15884;BME280;8040;50.254;10.960;2023-03-15T05:15:07;97959.13;;;3.64;72.20
15884;BME280;8040;50.254;10.960;2023-03-15T05:17:33;97966.38;;;3.63;72.11
15884;BME280;8040;50.254;10.960;2023-03-15T05:19:58;97955.94;;;3.67;72.25
15884;BME280;8040;50.254;10.960;2023-03-15T05:22:25;97957.53;;;3.68;72.01
15884;BME280;8040;50.254;10.960;2023-03-15T05:24:51;97967.22;;;3.74;72.50
15884;BME280;8040;50.254;10.960;2023-03-15T05:27:18;97969.66;;;3.75;72.06
15884;BME280;8040;50.254;10.960;2023-03-15T05:29:44;97973.97;;;3.81;72.11
15884;BME280;8040;50.254;10.960;2023-03-15T05:32:09;97978.78;;;3.84;71.08
15884;BME280;8040;50.254;10.960;2023-03-15T05:34:35;97976.09;;;3.84;71.84
15884;BME280;8040;50.254;10.960;2023-03-15T05:37:00;97986.59;;;3.91;71.66
15884;BME280;8040;50.254;10.960;2023-03-15T05:39:25;97989.03;;;3.97;71.76
15884;BME280;8040;50.254;10.960;2023-03-15T05:41:51;97989.06;;;4.07;71.59
15884;BME280;8040;50.254;10.960;2023-03-15T05:44:16;98001.97;;;4.15;71.02
15884;BME280;8040;50.254;10.960;2023-03-15T05:46:42;98005.16;;;4.17;70.61
15884;BME280;8040;50.254;10.960;2023-03-15T05:49:07;98014.84;;;4.23;70.51
15884;BME280;8040;50.254;10.960;2023-03-15T05:51:32;98018.66;;;4.32;70.80
15884;BME280;8040;50.254;10.960;2023-03-15T05:53:58;98025.63;;;4.33;70.10
15884;BME280;8040;50.254;10.960;2023-03-15T05:56:23;98026.97;;;4.31;69.63
15884;BME280;8040;50.254;10.960;2023-03-15T05:58:48;98039.59;;;4.35;69.53
15884;BME280;8040;50.254;10.960;2023-03-15T06:01:14;98043.63;;;4.28;69.42
15884;BME280;8040;50.254;10.960;2023-03-15T06:03:39;98044.97;;;4.30;69.89
15884;BME280;8040;50.254;10.960;2023-03-15T06:06:05;98050.34;;;4.30;68.58
15884;BME280;8040;50.254;10.960;2023-03-15T06:08:30;98046.56;;;4.26;68.83
15884;BME280;8040;50.254;10.960;2023-03-15T06:10:55;98042.53;;;4.29;68.83
15884;BME280;8040;50.254;10.960;2023-03-15T06:13:21;98045.50;;;4.32;69.38
15884;BME280;8040;50.254;10.960;2023-03-15T06:15:46;98033.66;;;4.28;69.84
15884;BME280;8040;50.254;10.960;2023-03-15T06:18:12;98054.91;;;4.35;70.00
15884;BME280;8040;50.254;10.960;2023-03-15T06:20:38;98057.59;;;4.40;70.25
15884;BME280;8040;50.254;10.960;2023-03-15T06:23:03;98056.78;;;4.39;70.21
15884;BME280;8040;50.254;10.960;2023-03-15T06:25:29;98057.31;;;4.41;70.05
15884;BME280;8040;50.254;10.960;2023-03-15T06:27:54;98059.50;;;4.44;70.50
15884;BME280;8040;50.254;10.960;2023-03-15T06:30:20;98063.53;;;4.47;69.83
15884;BME280;8040;50.254;10.960;2023-03-15T06:32:45;98069.44;;;4.49;69.88
15884;BME280;8040;50.254;10.960;2023-03-15T06:35:11;98058.72;;;4.54;70.42
15884;BME280;8040;50.254;10.960;2023-03-15T06:37:36;98063.03;;;4.60;69.82
15884;BME280;8040;50.254;10.960;2023-03-15T06:40:04;98077.00;;;4.67;69.86
15884;BME280;8040;50.254;10.960;2023-03-15T06:42:34;98077.28;;;4.75;70.12
15884;BME280;8040;50.254;10.960;2023-03-15T06:44:59;98077.28;;;4.75;68.59
15884;BME280;8040;50.254;10.960;2023-03-15T06:47:25;98078.91;;;4.76;69.08
15884;BME280;8040;50.254;10.960;2023-03-15T06:49:50;98082.13;;;4.78;69.69
15884;BME280;8040;50.254;10.960;2023-03-15T06:52:16;98078.38;;;4.79;69.06
15884;BME280;8040;50.254;10.960;2023-03-15T06:54:41;98077.31;;;4.80;69.50
15884;BME280;8040;50.254;10.960;2023-03-15T06:57:07;98082.41;;;4.87;69.35
15884;BME280;8040;50.254;10.960;2023-03-15T06:59:32;98087.00;;;4.91;68.76
15884;BME280;8040;50.254;10.960;2023-03-15T07:01:57;98097.19;;;4.94;68.85
15884;BME280;8040;50.254;10.960;2023-03-15T07:04:23;98099.91;;;4.99;68.10
15884;BME280;8040;50.254;10.960;2023-03-15T07:06:48;98092.09;;;4.98;67.90
15884;BME280;8040;50.254;10.960;2023-03-15T07:09:14;98098.81;;;5.05;67.26
15884;BME280;8040;50.254;10.960;2023-03-15T07:11:39;98108.50;;;5.11;67.66
15884;BME280;8040;50.254;10.960;2023-03-15T07:14:04;98105.31;;;5.34;68.90
15884;BME280;8040;50.254;10.960;2023-03-15T07:16:30;98106.09;;;5.30;66.85
15884;BME280;8040;50.254;10.960;2023-03-15T07:18:55;98113.88;;;5.31;66.64
15884;BME280;8040;50.254;10.960;2023-03-15T07:21:23;98107.72;;;5.31;66.28
15884;BME280;8040;50.254;10.960;2023-03-15T07:23:48;98110.13;;;5.32;66.48
15884;BME280;8040;50.254;10.960;2023-03-15T07:26:14;98111.75;;;5.28;65.98
15884;BME280;8040;50.254;10.960;2023-03-15T07:28:40;98113.88;;;5.31;66.79
15884;BME280;8040;50.254;10.960;2023-03-15T07:31:06;98124.38;;;5.28;65.97
15884;BME280;8040;50.254;10.960;2023-03-15T07:33:32;98118.22;;;5.27;66.58
15884;BME280;8040;50.254;10.960;2023-03-15T07:35:57;98114.97;;;5.30;66.41
15884;BME280;8040;50.254;10.960;2023-03-15T07:38:24;98120.59;;;5.29;66.24
15884;BME280;8040;50.254;10.960;2023-03-15T07:40:50;98114.41;;;5.38;66.26
15884;BME280;8040;50.254;10.960;2023-03-15T07:43:16;98116.56;;;5.61;67.06
15884;BME280;8040;50.254;10.960;2023-03-15T07:45:42;98111.19;;;5.81;66.09
15884;BME280;8040;50.254;10.960;2023-03-15T07:48:07;98113.34;;;5.84;64.62
15884;BME280;8040;50.254;10.960;2023-03-15T07:50:33;98119.75;;;5.98;65.08
15884;BME280;8040;50.254;10.960;2023-03-15T07:52:58;98125.13;;;6.08;64.09
15884;BME280;8040;50.254;10.960;2023-03-15T07:55:23;98132.69;;;6.06;64.03
15884;BME280;8040;50.254;10.960;2023-03-15T07:57:49;98131.59;;;6.02;63.49
15884;BME280;8040;50.254;10.960;2023-03-15T08:00:15;98127.84;;;5.98;63.96
15884;BME280;8040;50.254;10.960;2023-03-15T08:02:40;98139.69;;;5.87;63.89
15884;BME280;8040;50.254;10.960;2023-03-15T08:05:06;98135.13;;;5.88;63.93
15884;BME280;8040;50.254;10.960;2023-03-15T08:07:31;98127.31;;;5.86;63.96
15884;BME280;8040;50.254;10.960;2023-03-15T08:09:56;98134.03;;;5.94;64.81
15884;BME280;8040;50.254;10.960;2023-03-15T08:12:22;98128.38;;;6.00;64.03
15884;BME280;8040;50.254;10.960;2023-03-15T08:14:48;98133.75;;;6.05;63.37
15884;BME280;8040;50.254;10.960;2023-03-15T08:17:14;98130.75;;;6.22;63.39
15884;BME280;8040;50.254;10.960;2023-03-15T08:19:40;98128.28;;;6.30;63.48
15884;BME280;8040;50.254;10.960;2023-03-15T08:22:06;98132.84;;;6.40;62.15
15884;BME280;8040;50.254;10.960;2023-03-15T08:24:31;98131.44;;;6.47;62.28
15884;BME280;8040;50.254;10.960;2023-03-15T08:26:56;98122.84;;;6.50;62.21
15884;BME280;8040;50.254;10.960;2023-03-15T08:29:22;98135.50;;;6.45;62.17
15884;BME280;8040;50.254;10.960;2023-03-15T08:31:47;98133.06;;;6.48;62.24
15884;BME280;8040;50.254;10.960;2023-03-15T08:34:12;98133.63;;;6.40;61.62
15884;BME280;8040;50.254;10.960;2023-03-15T08:36:38;98136.91;;;6.32;61.83
15884;BME280;8040;50.254;10.960;2023-03-15T08:39:07;98139.59;;;6.37;62.15
15884;BME280;8040;50.254;10.960;2023-03-15T08:41:32;98136.63;;;6.34;61.99
15884;BME280;8040;50.254;10.960;2023-03-15T08:43:58;98138.53;;;6.28;62.44
15884;BME280;8040;50.254;10.960;2023-03-15T08:46:23;98149.31;;;6.23;62.01
15884;BME280;8040;50.254;10.960;2023-03-15T08:48:49;98153.91;;;6.18;62.35
15884;BME280;8040;50.254;10.960;2023-03-15T08:51:14;98150.19;;;6.04;63.88
15884;BME280;8040;50.254;10.960;2023-03-15T08:53:40;98149.38;;;6.03;64.12
15884;BME280;8040;50.254;10.960;2023-03-15T08:56:05;98157.44;;;5.98;64.72
15884;BME280;8040;50.254;10.960;2023-03-15T08:58:30;98148.28;;;5.99;66.31
15884;BME280;8040;50.254;10.960;2023-03-15T09:00:56;98153.66;;;6.09;67.10
15884;BME280;8040;50.254;10.960;2023-03-15T09:03:21;98150.41;;;6.12;67.14
15884;BME280;8040;50.254;10.960;2023-03-15T09:05:47;98154.19;;;6.11;67.37
15884;BME280;8040;50.254;10.960;2023-03-15T09:08:12;98153.94;;;6.08;66.89
15884;BME280;8040;50.254;10.960;2023-03-15T09:10:38;98153.16;;;5.92;67.78
15884;BME280;8040;50.254;10.960;2023-03-15T09:13:03;98161.78;;;5.94;68.15
15884;BME280;8040;50.254;10.960;2023-03-15T09:15:29;98170.66;;;5.95;68.36
15884;BME280;8040;50.254;10.960;2023-03-15T09:17:54;98165.81;;;5.92;68.36
15884;BME280;8040;50.254;10.960;2023-03-15T09:20:20;98163.13;;;5.92;69.48
15884;BME280;8040;50.254;10.960;2023-03-15T09:22:50;98168.50;;;5.92;68.97
15884;BME280;8040;50.254;10.960;2023-03-15T09:25:17;98174.16;;;5.90;68.94
15884;BME280;8040;50.254;10.960;2023-03-15T09:27:42;98181.16;;;5.86;68.58
15884;BME280;8040;50.254;10.960;2023-03-15T09:30:07;98176.84;;;5.85;68.57
15884;BME280;8040;50.254;10.960;2023-03-15T09:32:33;98175.25;;;5.89;68.77
15884;BME280;8040;50.254;10.960;2023-03-15T09:35:00;98173.59;;;5.93;69.51
15884;BME280;8040;50.254;10.960;2023-03-15T09:37:26;98178.47;;;5.91;69.85
15884;BME280;8040;50.254;10.960;2023-03-15T09:39:52;98183.59;;;5.98;70.44
15884;BME280;8040;50.254;10.960;2023-03-15T09:42:20;98189.75;;;6.03;70.13
15884;BME280;8040;50.254;10.960;2023-03-15T09:44:56;98191.63;;;6.03;70.03
15884;BME280;8040;50.254;10.960;2023-03-15T09:47:34;98189.75;;;5.98;70.42
15884;BME280;8040;50.254;10.960;2023-03-15T09:52:42;98196.22;;;5.92;70.88
15884;BME280;8040;50.254;10.960;2023-03-15T09:55:20;98194.09;;;5.94;70.73
15884;BME280;8040;50.254;10.960;2023-03-15T09:57:51;98199.72;;;5.88;70.10
15884;BME280;8040;50.254;10.960;2023-03-15T10:00:19;98198.13;;;5.82;70.91
15884;BME280;8040;50.254;10.960;2023-03-15T10:02:57;98206.19;;;5.82;70.92
15884;BME280;8040;50.254;10.960;2023-03-15T10:05:34;98199.44;;;5.74;70.59
15884;BME280;8040;50.254;10.960;2023-03-15T10:08:02;98206.41;;;5.75;71.70
15884;BME280;8040;50.254;10.960;2023-03-15T10:10:33;98210.22;;;5.84;72.03
15884;BME280;8040;50.254;10.960;2023-03-15T10:13:06;98209.16;;;5.90;72.21
15884;BME280;8040;50.254;10.960;2023-03-15T10:16:09;98208.06;;;5.86;71.44
15884;BME280;8040;50.254;10.960;2023-03-15T10:18:41;98212.63;;;5.91;71.48
15884;BME280;8040;50.254;10.960;2023-03-15T10:21:15;98220.44;;;5.92;71.74
15884;BME280;8040;50.254;10.960;2023-03-15T10:23:49;98227.19;;;5.90;72.28
15884;BME280;8040;50.254;10.960;2023-03-15T10:26:17;98211.84;;;5.85;72.23
15884;BME280;8040;50.254;10.960;2023-03-15T10:28:45;98217.50;;;5.84;72.25
15884;BME280;8040;50.254;10.960;2023-03-15T10:31:14;98225.53;;;5.79;71.54
15884;BME280;8040;50.254;10.960;2023-03-15T10:33:40;98226.88;;;5.71;71.84
15884;BME280;8040;50.254;10.960;2023-03-15T10:36:14;98229.03;;;5.69;72.19
15884;BME280;8040;50.254;10.960;2023-03-15T10:38:40;98225.53;;;5.74;72.45
15884;BME280;8040;50.254;10.960;2023-03-15T10:41:06;98224.47;;;5.75;71.23
15884;BME280;8040;50.254;10.960;2023-03-15T10:43:33;98224.72;;;5.73;71.93
15884;BME280;8040;50.254;10.960;2023-03-15T10:46:02;98225.28;;;5.80;73.35
15884;BME280;8040;50.254;10.960;2023-03-15T10:48:35;98223.16;;;5.82;72.10
15884;BME280;8040;50.254;10.960;2023-03-15T10:51:06;98230.41;;;5.87;71.69
15884;BME280;8040;50.254;10.960;2023-03-15T10:53:32;98225.31;;;5.90;71.55
15884;BME280;8040;50.254;10.960;2023-03-15T10:55:59;98232.31;;;6.01;72.77
15884;BME280;8040;50.254;10.960;2023-03-15T10:58:27;98224.75;;;6.08;71.67
15884;BME280;8040;50.254;10.960;2023-03-15T11:00:58;98228.75;;;6.21;71.62
15884;BME280;8040;50.254;10.960;2023-03-15T11:03:24;98229.00;;;6.34;70.59
15884;BME280;8040;50.254;10.960;2023-03-15T11:05:55;98225.22;;;6.55;69.69
15884;BME280;8040;50.254;10.960;2023-03-15T11:08:25;98226.50;;;6.68;68.85
15884;BME280;8040;50.254;10.960;2023-03-15T11:10:59;98230.75;;;6.84;69.21
15884;BME280;8040;50.254;10.960;2023-03-15T11:13:25;98228.06;;;6.79;67.57
15884;BME280;8040;50.254;10.960;2023-03-15T11:15:53;98226.72;;;6.86;68.47
15884;BME280;8040;50.254;10.960;2023-03-15T11:18:23;98232.63;;;6.88;68.87
15884;BME280;8040;50.254;10.960;2023-03-15T11:20:50;98231.56;;;6.79;67.74
15884;BME280;8040;50.254;10.960;2023-03-15T11:23:28;98238.00;;;6.88;67.83
15884;BME280;8040;50.254;10.960;2023-03-15T11:25:55;98234.53;;;6.83;68.20
15884;BME280;8040;50.254;10.960;2023-03-15T11:28:22;98230.19;;;6.87;68.36
15884;BME280;8040;50.254;10.960;2023-03-15T11:30:49;98231.03;;;6.77;67.81
15884;BME280;8040;50.254;10.960;2023-03-15T11:35:59;98223.53;;;6.69;68.30
15884;BME280;8040;50.254;10.960;2023-03-15T11:38:34;98223.03;;;6.62;68.15
15884;BME280;8040;50.254;10.960;2023-03-15T11:41:04;98227.31;;;6.68;69.65
15884;BME280;8040;50.254;10.960;2023-03-15T11:43:43;98221.34;;;6.76;68.60
15884;BME280;8040;50.254;10.960;2023-03-15T11:46:19;98227.50;;;6.82;68.13
15884;BME280;8040;50.254;10.960;2023-03-15T11:48:57;98220.72;;;6.94;67.86
15884;BME280;8040;50.254;10.960;2023-03-15T11:51:24;98221.81;;;6.98;68.73
15884;BME280;8040;50.254;10.960;2023-03-15T11:54:00;98217.44;;;7.02;68.34
15884;BME280;8040;50.254;10.960;2023-03-15T11:59:10;98226.97;;;6.90;67.69
15884;BME280;8040;50.254;10.960;2023-03-15T12:01:40;98228.88;;;6.79;67.47
15884;BME280;8040;50.254;10.960;2023-03-15T12:06:51;98226.63;;;7.01;68.94
15884;BME280;8040;50.254;10.960;2023-03-15T12:09:38;98224.41;;;7.13;68.94
15884;BME280;8040;50.254;10.960;2023-03-15T12:14:50;98216.81;;;7.20;67.30
15884;BME280;8040;50.254;10.960;2023-03-15T12:20:00;98224.78;;;7.40;68.95
15884;BME280;8040;50.254;10.960;2023-03-15T12:22:33;98225.78;;;7.54;68.02
15884;BME280;8040;50.254;10.960;2023-03-15T12:25:02;98219.19;;;7.70;68.16
15884;BME280;8040;50.254;10.960;2023-03-15T12:27:29;98221.53;;;7.81;68.16
15884;BME280;8040;50.254;10.960;2023-03-15T12:29:58;98223.38;;;7.86;67.26
15884;BME280;8040;50.254;10.960;2023-03-15T12:32:25;98235.28;;;7.85;65.06
15884;BME280;8040;50.254;10.960;2023-03-15T12:34:52;98236.88;;;7.86;65.09
15884;BME280;8040;50.254;10.960;2023-03-15T12:37:22;98244.03;;;7.72;64.60
15884;BME280;8040;50.254;10.960;2023-03-15T12:40:37;98233.53;;;7.65;65.72
15884;BME280;8040;50.254;10.960;2023-03-15T12:47:45;98240.38;;;7.53;66.83
15884;BME280;8040;50.254;10.960;2023-03-15T12:52:55;98241.31;;;7.28;65.32
15884;BME280;8040;50.254;10.960;2023-03-15T12:55:23;98241.13;;;7.15;65.05
15884;BME280;8040;50.254;10.960;2023-03-15T12:57:52;98237.75;;;6.85;64.47
15884;BME280;8040;50.254;10.960;2023-03-15T13:00:22;98237.53;;;6.71;65.17
15884;BME280;8040;50.254;10.960;2023-03-15T13:02:49;98244.78;;;6.81;66.32
15884;BME280;8040;50.254;10.960;2023-03-15T13:05:19;98235.59;;;6.87;65.82
15884;BME280;8040;50.254;10.960;2023-03-15T13:12:56;98239.47;;;6.56;66.24
15884;BME280;8040;50.254;10.960;2023-03-15T13:15:26;98237.03;;;6.59;66.90
15884;BME280;8040;50.254;10.960;2023-03-15T13:17:57;98232.72;;;6.58;67.18
15884;BME280;8040;50.254;10.960;2023-03-15T13:28:24;98225.03;;;7.00;66.02
15884;BME280;8040;50.254;10.960;2023-03-15T13:30:52;98230.91;;;7.12;66.73
15884;BME280;8040;50.254;10.960;2023-03-15T13:33:25;98229.28;;;7.16;67.49
15884;BME280;8040;50.254;10.960;2023-03-15T13:38:30;98239.59;;;6.99;66.44
15884;BME280;8040;50.254;10.960;2023-03-15T13:40:57;98247.72;;;6.89;66.00
15884;BME280;8040;50.254;10.960;2023-03-15T13:43:24;98256.91;;;6.83;65.93
15884;BME280;8040;50.254;10.960;2023-03-15T13:45:49;98260.44;;;6.69;65.82
15884;BME280;8040;50.254;10.960;2023-03-15T13:48:16;98266.16;;;6.57;66.68
15884;BME280;8040;50.254;10.960;2023-03-15T13:50:47;98275.06;;;6.48;68.09
15884;BME280;8040;50.254;10.960;2023-03-15T13:53:14;98270.50;;;6.28;68.48
15884;BME280;8040;50.254;10.960;2023-03-15T13:55:47;98266.75;;;6.19;68.65
15884;BME280;8040;50.254;10.960;2023-03-15T13:58:13;98268.09;;;6.22;69.56
15884;BME280;8040;50.254;10.960;2023-03-15T14:00:39;98266.19;;;6.22;70.06
15884;BME280;8040;50.254;10.960;2023-03-15T14:03:06;98262.41;;;6.28;70.30
15884;BME280;8040;50.254;10.960;2023-03-15T14:05:44;98259.16;;;6.36;70.69
15884;BME280;8040;50.254;10.960;2023-03-15T14:08:24;98266.97;;;6.43;70.49
15884;BME280;8040;50.254;10.960;2023-03-15T14:11:16;98272.38;;;6.38;70.50
15884;BME280;8040;50.254;10.960;2023-03-15T14:13:52;98266.47;;;6.36;71.21